Terminal Aerodrome Forecast
Issued by NWS

Home | Current Version | Previous Version | Text Only | Print | Product List | Glossary On
Versions: 1 2 3 4 5 6 7 8 9 10 11 12 13 14 15 16 17 18 19 20 21 22 23 24 25 26 27 28
000
FTUS41 KBUF 281700
TAFJHW
TAF
KJHW 281725Z 2818/0118 22003KT P6SM SKC
     FM282300 VRB03KT P6SM SCT250
     FM010600 VRB03KT P6SM OVC070
     FM011000 16005KT 4SM -SN OVC035
     FM011200 16005KT 2SM -SN OVC030
     FM011500 17007KT 1SM -SN OVC020
      AMD LTD TO CLD VIS AND WIND=

USA.gov is the U.S. government's official web portal to all federal, state and local government web resources and services.